KRKW

Details ICAO KRKW
Name Rockwood Muni
Region United States
Timezone America/Chicago (UTC-6.0)
Plans Departing 1
Arriving 3
Stats Elevation 1,664 ft / 507 m (AMSL)
Location 35.922266° -84.689734°
Runways 1
Magnetic Variation 5.235° W
Sunrise 2017-12-13 12:42:04 UTC / 2017-12-13 06:42:04 Local
Sunset 2017-12-13 22:26:55 UTC / 2017-12-13 16:26:55 Local
Advertisement - Login to hide

Runways

ID Width Length Bearing (true) Bearing (mag) Surface Threshold Offset Overrun Length
04 100 ft / 30 m 4,998 ft / 1,523 m 39.22° 44.46° Asphalt 0 ft / 0 m 0 ft / 0 m
22 100 ft / 30 m 4,998 ft / 1,523 m 219.23° 224.47° Asphalt 0 ft / 0 m 0 ft / 0 m

Map

Weather


0- 5 10 15 20 25 30 35+ Temperature / ° C

Clouds and Precipitation
Forecast for 2017-12-14 06:00 UTC. Updated an hour ago

Ground ~20,000 ft ~40,000 ft Winds

METAR

KRKW 140435Z AUTO 22008KT 10SM FEW050 FEW055 02/M08 A2976 RMK A01

TAF

Not found

Frequencies

Recorded 118.77 MHz AWOS 3
Unicom 122.80 MHz UNICOM
Warning: Do not use this data for real-world aviation or navigation. No guarantee of current accuracy is given.